sensor_id;sensor_type;location;lat;lon;timestamp;temperature;humidity
6662;DHT22;3367;48.714;8.994;2023-10-31T00:02:01;10.80;99.90
6662;DHT22;3367;48.714;8.994;2023-10-31T00:04:28;10.80;99.90
6662;DHT22;3367;48.714;8.994;2023-10-31T00:06:58;10.80;1.00
6662;DHT22;3367;48.714;8.994;2023-10-31T00:09:25;10.80;1.00
6662;DHT22;3367;48.714;8.994;2023-10-31T00:11:53;10.70;1.00
6662;DHT22;3367;48.714;8.994;2023-10-31T00:14:19;10.70;1.00
6662;DHT22;3367;48.714;8.994;2023-10-31T00:16:52;10.70;1.00
6662;DHT22;3367;48.714;8.994;2023-10-31T00:19:19;10.70;1.00
6662;DHT22;3367;48.714;8.994;2023-10-31T00:21:48;10.70;99.90
6662;DHT22;3367;48.714;8.994;2023-10-31T00:24:15;10.70;99.90
6662;DHT22;3367;48.714;8.994;2023-10-31T00:26:45;10.70;99.90
6662;DHT22;3367;48.714;8.994;2023-10-31T00:29:13;10.70;99.90
6662;DHT22;3367;48.714;8.994;2023-10-31T00:31:40;10.60;99.90
6662;DHT22;3367;48.714;8.994;2023-10-31T00:34:07;10.70;99.90
6662;DHT22;3367;48.714;8.994;2023-10-31T00:36:34;10.60;99.90
6662;DHT22;3367;48.714;8.994;2023-10-31T00:39:01;10.60;86.30
6662;DHT22;3367;48.714;8.994;2023-10-31T00:41:29;10.60;1.00
6662;DHT22;3367;48.714;8.994;2023-10-31T00:44:02;10.60;1.00
6662;DHT22;3367;48.714;8.994;2023-10-31T00:46:33;10.60;1.00
6662;DHT22;3367;48.714;8.994;2023-10-31T00:49:00;10.60;1.00
6662;DHT22;3367;48.714;8.994;2023-10-31T00:51:27;10.60;1.00
6662;DHT22;3367;48.714;8.994;2023-10-31T00:53:53;10.50;1.00
6662;DHT22;3367;48.714;8.994;2023-10-31T00:56:23;10.40;99.90
6662;DHT22;3367;48.714;8.994;2023-10-31T00:58:50;10.30;1.00
6662;DHT22;3367;48.714;8.994;2023-10-31T01:01:20;10.30;1.00
6662;DHT22;3367;48.714;8.994;2023-10-31T01:03:48;10.30;1.00
6662;DHT22;3367;48.714;8.994;2023-10-31T01:06:14;10.30;1.00
6662;DHT22;3367;48.714;8.994;2023-10-31T01:08:44;10.20;1.00
6662;DHT22;3367;48.714;8.994;2023-10-31T01:11:11;10.10;1.00
6662;DHT22;3367;48.714;8.994;2023-10-31T01:13:40;10.10;1.00
6662;DHT22;3367;48.714;8.994;2023-10-31T01:16:15;10.00;1.00
6662;DHT22;3367;48.714;8.994;2023-10-31T01:18:42;9.80;1.00
6662;DHT22;3367;48.714;8.994;2023-10-31T01:21:10;9.70;1.00
6662;DHT22;3367;48.714;8.994;2023-10-31T01:23:37;9.60;1.00
6662;DHT22;3367;48.714;8.994;2023-10-31T01:26:04;9.60;1.00
6662;DHT22;3367;48.714;8.994;2023-10-31T01:28:31;9.50;1.00
6662;DHT22;3367;48.714;8.994;2023-10-31T01:30:57;9.50;1.00
6662;DHT22;3367;48.714;8.994;2023-10-31T01:33:24;9.50;1.00
6662;DHT22;3367;48.714;8.994;2023-10-31T01:35:51;9.50;1.00
6662;DHT22;3367;48.714;8.994;2023-10-31T01:38:19;9.50;1.00
6662;DHT22;3367;48.714;8.994;2023-10-31T01:40:50;9.50;7.90
6662;DHT22;3367;48.714;8.994;2023-10-31T01:43:29;9.50;99.90
6662;DHT22;3367;48.714;8.994;2023-10-31T01:45:56;9.50;99.90
6662;DHT22;3367;48.714;8.994;2023-10-31T01:48:23;9.60;99.90
6662;DHT22;3367;48.714;8.994;2023-10-31T01:50:51;9.50;99.90
6662;DHT22;3367;48.714;8.994;2023-10-31T01:53:23;9.60;99.90
6662;DHT22;3367;48.714;8.994;2023-10-31T01:55:55;9.60;99.90
6662;DHT22;3367;48.714;8.994;2023-10-31T01:58:29;9.60;99.90
6662;DHT22;3367;48.714;8.994;2023-10-31T02:00:57;9.60;99.90
6662;DHT22;3367;48.714;8.994;2023-10-31T02:03:23;9.60;99.90
6662;DHT22;3367;48.714;8.994;2023-10-31T02:05:51;9.60;99.90
6662;DHT22;3367;48.714;8.994;2023-10-31T02:08:22;9.60;98.40
6662;DHT22;3367;48.714;8.994;2023-10-31T02:10:49;9.60;86.30
6662;DHT22;3367;48.714;8.994;2023-10-31T02:13:16;9.60;10.90
6662;DHT22;3367;48.714;8.994;2023-10-31T02:15:47;9.60;4.00
6662;DHT22;3367;48.714;8.994;2023-10-31T02:18:17;9.60;1.00
6662;DHT22;3367;48.714;8.994;2023-10-31T02:20:44;9.60;1.00
6662;DHT22;3367;48.714;8.994;2023-10-31T02:23:12;9.70;1.00
6662;DHT22;3367;48.714;8.994;2023-10-31T02:25:41;9.70;1.00
6662;DHT22;3367;48.714;8.994;2023-10-31T02:28:11;9.80;1.00
6662;DHT22;3367;48.714;8.994;2023-10-31T02:30:38;9.80;1.00
6662;DHT22;3367;48.714;8.994;2023-10-31T02:33:04;9.80;1.00
6662;DHT22;3367;48.714;8.994;2023-10-31T02:35:31;9.80;1.00
6662;DHT22;3367;48.714;8.994;2023-10-31T02:38:03;9.70;1.00
6662;DHT22;3367;48.714;8.994;2023-10-31T02:40:34;9.70;1.00
6662;DHT22;3367;48.714;8.994;2023-10-31T02:43:00;9.80;35.90
6662;DHT22;3367;48.714;8.994;2023-10-31T02:45:28;9.70;1.00
6662;DHT22;3367;48.714;8.994;2023-10-31T02:47:57;9.70;1.00
6662;DHT22;3367;48.714;8.994;2023-10-31T02:50:24;9.70;1.00
6662;DHT22;3367;48.714;8.994;2023-10-31T02:52:51;9.80;1.00
6662;DHT22;3367;48.714;8.994;2023-10-31T02:55:18;9.80;1.00
6662;DHT22;3367;48.714;8.994;2023-10-31T02:57:46;9.80;1.00
6662;DHT22;3367;48.714;8.994;2023-10-31T03:00:13;9.80;1.00
6662;DHT22;3367;48.714;8.994;2023-10-31T03:02:40;9.70;1.00
6662;DHT22;3367;48.714;8.994;2023-10-31T03:05:13;9.70;1.00
6662;DHT22;3367;48.714;8.994;2023-10-31T03:07:39;9.70;1.00
6662;DHT22;3367;48.714;8.994;2023-10-31T03:10:09;9.70;1.00
6662;DHT22;3367;48.714;8.994;2023-10-31T03:12:36;9.60;1.00
6662;DHT22;3367;48.714;8.994;2023-10-31T03:15:08;9.60;1.00
6662;DHT22;3367;48.714;8.994;2023-10-31T03:17:38;9.50;1.00
6662;DHT22;3367;48.714;8.994;2023-10-31T03:20:06;9.50;1.00
6662;DHT22;3367;48.714;8.994;2023-10-31T03:22:32;9.50;1.00
6662;DHT22;3367;48.714;8.994;2023-10-31T03:24:59;9.50;1.00
6662;DHT22;3367;48.714;8.994;2023-10-31T03:27:26;9.50;1.00
6662;DHT22;3367;48.714;8.994;2023-10-31T03:29:53;9.40;1.00
6662;DHT22;3367;48.714;8.994;2023-10-31T03:32:21;9.50;1.00
6662;DHT22;3367;48.714;8.994;2023-10-31T03:34:48;9.30;1.00
6662;DHT22;3367;48.714;8.994;2023-10-31T03:37:15;9.40;1.00
6662;DHT22;3367;48.714;8.994;2023-10-31T03:39:42;9.30;1.00
6662;DHT22;3367;48.714;8.994;2023-10-31T03:42:11;9.30;1.00
6662;DHT22;3367;48.714;8.994;2023-10-31T03:44:41;9.30;1.00
6662;DHT22;3367;48.714;8.994;2023-10-31T03:47:11;9.30;1.00
6662;DHT22;3367;48.714;8.994;2023-10-31T03:49:39;9.30;1.00
6662;DHT22;3367;48.714;8.994;2023-10-31T03:52:09;9.20;10.60
6662;DHT22;3367;48.714;8.994;2023-10-31T03:54:39;9.20;77.60
6662;DHT22;3367;48.714;8.994;2023-10-31T03:57:08;9.20;99.90
6662;DHT22;3367;48.714;8.994;2023-10-31T03:59:42;9.20;99.90
6662;DHT22;3367;48.714;8.994;2023-10-31T04:02:12;9.10;99.90
6662;DHT22;3367;48.714;8.994;2023-10-31T04:04:40;9.20;99.90
6662;DHT22;3367;48.714;8.994;2023-10-31T04:07:07;9.20;1.00
6662;DHT22;3367;48.714;8.994;2023-10-31T04:09:36;9.20;1.00
6662;DHT22;3367;48.714;8.994;2023-10-31T04:12:03;9.20;1.00
6662;DHT22;3367;48.714;8.994;2023-10-31T04:14:33;9.20;1.00
6662;DHT22;3367;48.714;8.994;2023-10-31T04:17:00;9.20;1.00
6662;DHT22;3367;48.714;8.994;2023-10-31T04:19:26;9.10;1.00
6662;DHT22;3367;48.714;8.994;2023-10-31T04:22:00;9.30;1.00
6662;DHT22;3367;48.714;8.994;2023-10-31T04:24:26;9.20;99.90
6662;DHT22;3367;48.714;8.994;2023-10-31T04:26:53;9.20;99.90
6662;DHT22;3367;48.714;8.994;2023-10-31T04:29:30;9.20;99.90
6662;DHT22;3367;48.714;8.994;2023-10-31T04:31:57;9.20;99.90
6662;DHT22;3367;48.714;8.994;2023-10-31T04:34:23;9.20;99.90
6662;DHT22;3367;48.714;8.994;2023-10-31T04:36:50;9.20;99.90
6662;DHT22;3367;48.714;8.994;2023-10-31T04:39:24;9.30;93.70
6662;DHT22;3367;48.714;8.994;2023-10-31T04:41:51;9.20;99.90
6662;DHT22;3367;48.714;8.994;2023-10-31T04:44:20;9.20;93.40
6662;DHT22;3367;48.714;8.994;2023-10-31T04:46:47;9.10;69.80
6662;DHT22;3367;48.714;8.994;2023-10-31T04:49:13;9.10;93.30
6662;DHT22;3367;48.714;8.994;2023-10-31T04:51:49;9.10;99.90
6662;DHT22;3367;48.714;8.994;2023-10-31T04:54:16;9.00;59.90
6662;DHT22;3367;48.714;8.994;2023-10-31T04:56:49;9.00;68.10
6662;DHT22;3367;48.714;8.994;2023-10-31T04:59:16;9.00;1.00
6662;DHT22;3367;48.714;8.994;2023-10-31T05:01:48;9.10;1.00
6662;DHT22;3367;48.714;8.994;2023-10-31T05:04:15;8.90;1.00
6662;DHT22;3367;48.714;8.994;2023-10-31T05:06:45;8.90;1.00
6662;DHT22;3367;48.714;8.994;2023-10-31T05:09:13;8.90;1.00
6662;DHT22;3367;48.714;8.994;2023-10-31T05:11:40;8.90;1.00
6662;DHT22;3367;48.714;8.994;2023-10-31T05:14:09;8.90;9.80
6662;DHT22;3367;48.714;8.994;2023-10-31T05:16:42;8.90;1.00
6662;DHT22;3367;48.714;8.994;2023-10-31T05:19:09;8.90;1.00
6662;DHT22;3367;48.714;8.994;2023-10-31T05:21:36;8.90;1.00
6662;DHT22;3367;48.714;8.994;2023-10-31T05:24:03;8.80;1.00
6662;DHT22;3367;48.714;8.994;2023-10-31T05:26:30;8.80;1.00
6662;DHT22;3367;48.714;8.994;2023-10-31T05:28:57;8.70;1.00
6662;DHT22;3367;48.714;8.994;2023-10-31T05:31:25;8.70;1.00
6662;DHT22;3367;48.714;8.994;2023-10-31T05:33:52;8.70;1.00
6662;DHT22;3367;48.714;8.994;2023-10-31T05:36:19;8.70;1.00
6662;DHT22;3367;48.714;8.994;2023-10-31T05:38:46;8.60;1.00
6662;DHT22;3367;48.714;8.994;2023-10-31T05:41:13;8.60;1.00
6662;DHT22;3367;48.714;8.994;2023-10-31T05:43:49;8.60;99.90
6662;DHT22;3367;48.714;8.994;2023-10-31T05:46:16;8.60;99.90
6662;DHT22;3367;48.714;8.994;2023-10-31T05:48:45;8.60;99.90
6662;DHT22;3367;48.714;8.994;2023-10-31T05:51:16;8.60;99.90
6662;DHT22;3367;48.714;8.994;2023-10-31T05:53:44;8.60;99.90
6662;DHT22;3367;48.714;8.994;2023-10-31T05:56:12;8.70;99.90
6662;DHT22;3367;48.714;8.994;2023-10-31T05:58:42;8.70;99.90
6662;DHT22;3367;48.714;8.994;2023-10-31T06:01:09;8.60;99.90
6662;DHT22;3367;48.714;8.994;2023-10-31T06:03:36;8.60;99.90
6662;DHT22;3367;48.714;8.994;2023-10-31T06:06:10;8.50;99.90
6662;DHT22;3367;48.714;8.994;2023-10-31T06:08:41;8.60;99.90
6662;DHT22;3367;48.714;8.994;2023-10-31T06:11:07;8.60;1.00
6662;DHT22;3367;48.714;8.994;2023-10-31T06:13:34;8.60;1.00
6662;DHT22;3367;48.714;8.994;2023-10-31T06:16:01;8.60;1.00
6662;DHT22;3367;48.714;8.994;2023-10-31T06:18:28;8.60;1.00
6662;DHT22;3367;48.714;8.994;2023-10-31T06:20:56;8.60;1.00
6662;DHT22;3367;48.714;8.994;2023-10-31T06:23:24;8.50;99.90
6662;DHT22;3367;48.714;8.994;2023-10-31T06:25:51;8.50;99.90
6662;DHT22;3367;48.714;8.994;2023-10-31T06:28:18;8.50;99.90
6662;DHT22;3367;48.714;8.994;2023-10-31T06:30:45;8.50;99.90
6662;DHT22;3367;48.714;8.994;2023-10-31T06:33:12;8.40;99.90
6662;DHT22;3367;48.714;8.994;2023-10-31T06:35:38;8.40;99.90
6662;DHT22;3367;48.714;8.994;2023-10-31T06:38:05;8.40;99.90
6662;DHT22;3367;48.714;8.994;2023-10-31T06:40:33;8.40;99.90
6662;DHT22;3367;48.714;8.994;2023-10-31T06:43:01;8.50;1.00
6662;DHT22;3367;48.714;8.994;2023-10-31T06:45:28;8.40;99.90
6662;DHT22;3367;48.714;8.994;2023-10-31T06:47:55;8.40;1.00
6662;DHT22;3367;48.714;8.994;2023-10-31T06:50:22;8.60;1.00
6662;DHT22;3367;48.714;8.994;2023-10-31T06:52:49;8.50;99.90
6662;DHT22;3367;48.714;8.994;2023-10-31T06:55:15;8.60;99.90
6662;DHT22;3367;48.714;8.994;2023-10-31T06:57:44;8.70;99.90
6662;DHT22;3367;48.714;8.994;2023-10-31T07:00:11;8.70;99.90
6662;DHT22;3367;48.714;8.994;2023-10-31T07:02:38;8.80;99.90
6662;DHT22;3367;48.714;8.994;2023-10-31T07:05:06;8.90;99.90
6662;DHT22;3367;48.714;8.994;2023-10-31T07:07:33;8.90;99.90
6662;DHT22;3367;48.714;8.994;2023-10-31T07:09:59;8.90;99.90
6662;DHT22;3367;48.714;8.994;2023-10-31T07:12:26;9.00;99.90
6662;DHT22;3367;48.714;8.994;2023-10-31T07:14:55;9.10;99.90
6662;DHT22;3367;48.714;8.994;2023-10-31T07:17:23;9.10;99.90
6662;DHT22;3367;48.714;8.994;2023-10-31T07:19:50;9.20;99.90
6662;DHT22;3367;48.714;8.994;2023-10-31T07:22:17;9.20;99.90
6662;DHT22;3367;48.714;8.994;2023-10-31T07:24:44;9.20;72.20
6662;DHT22;3367;48.714;8.994;2023-10-31T07:27:11;9.30;57.00
6662;DHT22;3367;48.714;8.994;2023-10-31T07:29:39;9.30;1.00
6662;DHT22;3367;48.714;8.994;2023-10-31T07:32:08;9.40;1.00
6662;DHT22;3367;48.714;8.994;2023-10-31T07:34:35;9.40;1.00
6662;DHT22;3367;48.714;8.994;2023-10-31T07:37:02;9.50;1.00
6662;DHT22;3367;48.714;8.994;2023-10-31T07:39:29;9.50;1.00
6662;DHT22;3367;48.714;8.994;2023-10-31T07:41:56;9.50;1.00
6662;DHT22;3367;48.714;8.994;2023-10-31T07:44:23;9.70;1.00
6662;DHT22;3367;48.714;8.994;2023-10-31T07:46:50;9.80;1.00
6662;DHT22;3367;48.714;8.994;2023-10-31T07:49:18;9.80;1.00
6662;DHT22;3367;48.714;8.994;2023-10-31T07:51:46;9.90;1.00
6662;DHT22;3367;48.714;8.994;2023-10-31T07:54:14;10.00;99.90
6662;DHT22;3367;48.714;8.994;2023-10-31T07:56:41;10.00;99.90
6662;DHT22;3367;48.714;8.994;2023-10-31T07:59:08;9.90;64.50
6662;DHT22;3367;48.714;8.994;2023-10-31T08:01:35;10.00;95.20
6662;DHT22;3367;48.714;8.994;2023-10-31T08:04:02;10.10;99.90
6662;DHT22;3367;48.714;8.994;2023-10-31T08:06:31;10.10;94.90
6662;DHT22;3367;48.714;8.994;2023-10-31T08:08:57;10.10;1.00
6662;DHT22;3367;48.714;8.994;2023-10-31T08:11:24;10.30;1.00
6662;DHT22;3367;48.714;8.994;2023-10-31T08:13:52;10.30;92.90
6662;DHT22;3367;48.714;8.994;2023-10-31T08:16:19;10.30;99.90
6662;DHT22;3367;48.714;8.994;2023-10-31T08:18:46;10.40;1.00
6662;DHT22;3367;48.714;8.994;2023-10-31T08:21:13;10.40;1.00
6662;DHT22;3367;48.714;8.994;2023-10-31T08:23:41;10.50;14.40
6662;DHT22;3367;48.714;8.994;2023-10-31T08:26:10;10.50;1.00
6662;DHT22;3367;48.714;8.994;2023-10-31T08:28:38;10.60;1.00
6662;DHT22;3367;48.714;8.994;2023-10-31T08:31:05;10.60;1.00
6662;DHT22;3367;48.714;8.994;2023-10-31T08:33:31;10.70;1.00
6662;DHT22;3367;48.714;8.994;2023-10-31T08:35:58;10.60;1.00
6662;DHT22;3367;48.714;8.994;2023-10-31T08:38:26;10.80;1.00
6662;DHT22;3367;48.714;8.994;2023-10-31T08:40:55;10.80;1.00
6662;DHT22;3367;48.714;8.994;2023-10-31T08:43:22;10.90;1.00
6662;DHT22;3367;48.714;8.994;2023-10-31T08:45:49;10.90;1.00
6662;DHT22;3367;48.714;8.994;2023-10-31T08:48:16;11.00;1.00
6662;DHT22;3367;48.714;8.994;2023-10-31T08:50:42;10.90;1.00
6662;DHT22;3367;48.714;8.994;2023-10-31T08:53:09;10.90;1.00
6662;DHT22;3367;48.714;8.994;2023-10-31T08:55:36;11.00;1.00
6662;DHT22;3367;48.714;8.994;2023-10-31T08:58:04;11.00;1.00
6662;DHT22;3367;48.714;8.994;2023-10-31T09:00:31;11.00;1.00
6662;DHT22;3367;48.714;8.994;2023-10-31T09:02:58;11.00;1.00
6662;DHT22;3367;48.714;8.994;2023-10-31T09:05:25;11.00;1.00
6662;DHT22;3367;48.714;8.994;2023-10-31T09:07:51;11.10;1.00
6662;DHT22;3367;48.714;8.994;2023-10-31T09:10:18;11.10;1.00
6662;DHT22;3367;48.714;8.994;2023-10-31T09:12:45;11.20;1.00
6662;DHT22;3367;48.714;8.994;2023-10-31T09:15:13;11.10;1.00
6662;DHT22;3367;48.714;8.994;2023-10-31T09:17:40;11.20;99.90
6662;DHT22;3367;48.714;8.994;2023-10-31T09:20:08;11.20;99.90
6662;DHT22;3367;48.714;8.994;2023-10-31T09:22:35;11.20;99.90
6662;DHT22;3367;48.714;8.994;2023-10-31T09:25:02;11.30;99.90
6662;DHT22;3367;48.714;8.994;2023-10-31T09:27:29;11.30;99.90
6662;DHT22;3367;48.714;8.994;2023-10-31T09:29:55;11.40;1.00
6662;DHT22;3367;48.714;8.994;2023-10-31T09:32:23;11.50;99.90
6662;DHT22;3367;48.714;8.994;2023-10-31T09:34:50;11.60;99.90
6662;DHT22;3367;48.714;8.994;2023-10-31T09:37:17;11.60;99.90
6662;DHT22;3367;48.714;8.994;2023-10-31T09:39:44;11.70;99.90
6662;DHT22;3367;48.714;8.994;2023-10-31T09:42:10;11.80;99.90
6662;DHT22;3367;48.714;8.994;2023-10-31T09:44:37;11.90;99.90
6662;DHT22;3367;48.714;8.994;2023-10-31T09:47:06;11.90;99.90
6662;DHT22;3367;48.714;8.994;2023-10-31T09:49:34;11.90;99.10
6662;DHT22;3367;48.714;8.994;2023-10-31T09:52:02;11.80;99.90
6662;DHT22;3367;48.714;8.994;2023-10-31T09:54:29;11.70;99.90
6662;DHT22;3367;48.714;8.994;2023-10-31T09:56:56;11.60;99.90
6662;DHT22;3367;48.714;8.994;2023-10-31T09:59:23;11.60;99.90
6662;DHT22;3367;48.714;8.994;2023-10-31T10:01:50;11.50;99.90
6662;DHT22;3367;48.714;8.994;2023-10-31T10:04:17;11.50;99.90
6662;DHT22;3367;48.714;8.994;2023-10-31T10:06:58;11.60;99.90
6662;DHT22;3367;48.714;8.994;2023-10-31T10:09:25;11.80;99.90
6662;DHT22;3367;48.714;8.994;2023-10-31T10:11:53;11.80;99.90
6662;DHT22;3367;48.714;8.994;2023-10-31T10:14:22;11.80;3.30
6662;DHT22;3367;48.714;8.994;2023-10-31T10:16:49;11.80;1.00
6662;DHT22;3367;48.714;8.994;2023-10-31T10:19:16;11.90;1.00
6662;DHT22;3367;48.714;8.994;2023-10-31T10:21:48;11.90;1.00
6662;DHT22;3367;48.714;8.994;2023-10-31T10:24:17;11.90;1.00
6662;DHT22;3367;48.714;8.994;2023-10-31T10:26:44;11.90;1.00
6662;DHT22;3367;48.714;8.994;2023-10-31T10:29:11;11.90;1.00
6662;DHT22;3367;48.714;8.994;2023-10-31T10:31:37;12.00;23.20
6662;DHT22;3367;48.714;8.994;2023-10-31T10:34:05;11.90;1.00
6662;DHT22;3367;48.714;8.994;2023-10-31T10:36:33;11.90;1.00
6662;DHT22;3367;48.714;8.994;2023-10-31T10:39:01;11.90;1.00
6662;DHT22;3367;48.714;8.994;2023-10-31T10:41:34;11.90;99.90
6662;DHT22;3367;48.714;8.994;2023-10-31T10:44:04;12.00;1.00
6662;DHT22;3367;48.714;8.994;2023-10-31T10:46:33;11.90;1.00
6662;DHT22;3367;48.714;8.994;2023-10-31T10:49:03;12.00;1.00
6662;DHT22;3367;48.714;8.994;2023-10-31T10:51:39;12.00;1.00
6662;DHT22;3367;48.714;8.994;2023-10-31T10:54:11;12.20;1.00
6662;DHT22;3367;48.714;8.994;2023-10-31T10:56:47;12.50;1.00
6662;DHT22;3367;48.714;8.994;2023-10-31T10:59:21;12.60;1.00
6662;DHT22;3367;48.714;8.994;2023-10-31T11:01:53;12.70;1.00
6662;DHT22;3367;48.714;8.994;2023-10-31T11:04:20;12.80;1.00
6662;DHT22;3367;48.714;8.994;2023-10-31T11:06:48;12.70;1.00
6662;DHT22;3367;48.714;8.994;2023-10-31T11:09:15;12.60;1.00
6662;DHT22;3367;48.714;8.994;2023-10-31T11:11:44;12.70;1.00
6662;DHT22;3367;48.714;8.994;2023-10-31T11:14:15;12.80;1.00
6662;DHT22;3367;48.714;8.994;2023-10-31T11:16:45;12.90;99.90
6662;DHT22;3367;48.714;8.994;2023-10-31T11:19:14;13.10;1.00
6662;DHT22;3367;48.714;8.994;2023-10-31T11:21:53;13.10;99.90
6662;DHT22;3367;48.714;8.994;2023-10-31T11:24:20;13.10;99.90
6662;DHT22;3367;48.714;8.994;2023-10-31T11:26:52;13.20;99.90
6662;DHT22;3367;48.714;8.994;2023-10-31T11:29:19;13.20;99.90
6662;DHT22;3367;48.714;8.994;2023-10-31T11:31:49;13.10;99.90
6662;DHT22;3367;48.714;8.994;2023-10-31T11:34:16;13.10;99.90
6662;DHT22;3367;48.714;8.994;2023-10-31T11:36:44;13.10;99.90
6662;DHT22;3367;48.714;8.994;2023-10-31T11:39:14;13.20;99.90
6662;DHT22;3367;48.714;8.994;2023-10-31T11:41:48;13.30;99.90
6662;DHT22;3367;48.714;8.994;2023-10-31T11:44:17;13.30;99.90
6662;DHT22;3367;48.714;8.994;2023-10-31T11:46:44;13.30;99.90
6662;DHT22;3367;48.714;8.994;2023-10-31T11:49:16;13.30;99.90
6662;DHT22;3367;48.714;8.994;2023-10-31T11:51:45;13.20;99.90
6662;DHT22;3367;48.714;8.994;2023-10-31T11:54:14;13.00;99.90
6662;DHT22;3367;48.714;8.994;2023-10-31T11:56:53;13.00;99.90
6662;DHT22;3367;48.714;8.994;2023-10-31T11:59:24;12.80;99.90
6662;DHT22;3367;48.714;8.994;2023-10-31T12:01:53;12.70;1.00
6662;DHT22;3367;48.714;8.994;2023-10-31T12:04:24;12.70;1.00
6662;DHT22;3367;48.714;8.994;2023-10-31T12:06:58;12.80;99.90
6662;DHT22;3367;48.714;8.994;2023-10-31T12:09:26;12.60;1.00
6662;DHT22;3367;48.714;8.994;2023-10-31T12:11:55;12.60;1.00
6662;DHT22;3367;48.714;8.994;2023-10-31T12:14:24;12.70;1.00
6662;DHT22;3367;48.714;8.994;2023-10-31T12:16:50;12.80;1.00
6662;DHT22;3367;48.714;8.994;2023-10-31T12:19:20;12.90;1.00
6662;DHT22;3367;48.714;8.994;2023-10-31T12:21:47;12.90;1.00
6662;DHT22;3367;48.714;8.994;2023-10-31T12:24:17;13.00;1.00
6662;DHT22;3367;48.714;8.994;2023-10-31T12:26:45;13.10;1.00
6662;DHT22;3367;48.714;8.994;2023-10-31T12:29:14;13.00;1.00
6662;DHT22;3367;48.714;8.994;2023-10-31T12:31:47;12.90;1.00
6662;DHT22;3367;48.714;8.994;2023-10-31T12:34:15;12.90;1.00
6662;DHT22;3367;48.714;8.994;2023-10-31T12:36:42;12.80;1.00
6662;DHT22;3367;48.714;8.994;2023-10-31T12:39:10;12.80;1.00
6662;DHT22;3367;48.714;8.994;2023-10-31T12:41:38;12.80;1.00
6662;DHT22;3367;48.714;8.994;2023-10-31T12:44:06;12.70;1.00
6662;DHT22;3367;48.714;8.994;2023-10-31T12:46:33;12.70;1.00
6662;DHT22;3367;48.714;8.994;2023-10-31T12:49:02;12.70;1.00
6662;DHT22;3367;48.714;8.994;2023-10-31T12:51:29;12.60;1.00
6662;DHT22;3367;48.714;8.994;2023-10-31T12:53:56;12.50;1.00
6662;DHT22;3367;48.714;8.994;2023-10-31T12:56:38;12.50;1.00
6662;DHT22;3367;48.714;8.994;2023-10-31T12:59:06;12.60;1.00
6662;DHT22;3367;48.714;8.994;2023-10-31T13:01:34;12.70;1.00
6662;DHT22;3367;48.714;8.994;2023-10-31T13:04:03;12.80;1.00
6662;DHT22;3367;48.714;8.994;2023-10-31T13:06:30;12.90;1.00
6662;DHT22;3367;48.714;8.994;2023-10-31T13:08:58;12.90;1.00
6662;DHT22;3367;48.714;8.994;2023-10-31T13:11:29;12.90;1.00
6662;DHT22;3367;48.714;8.994;2023-10-31T13:13:56;12.90;1.00
6662;DHT22;3367;48.714;8.994;2023-10-31T13:16:23;12.90;1.00
6662;DHT22;3367;48.714;8.994;2023-10-31T13:18:49;13.00;1.00
6662;DHT22;3367;48.714;8.994;2023-10-31T13:21:17;13.10;1.00
6662;DHT22;3367;48.714;8.994;2023-10-31T13:23:44;13.10;99.90
6662;DHT22;3367;48.714;8.994;2023-10-31T13:26:13;13.20;99.90
6662;DHT22;3367;48.714;8.994;2023-10-31T13:28:40;13.40;99.90
6662;DHT22;3367;48.714;8.994;2023-10-31T13:31:07;13.40;1.00
6662;DHT22;3367;48.714;8.994;2023-10-31T13:33:34;13.20;1.00
6662;DHT22;3367;48.714;8.994;2023-10-31T13:36:01;13.20;1.00
6662;DHT22;3367;48.714;8.994;2023-10-31T13:38:30;13.30;1.00
6662;DHT22;3367;48.714;8.994;2023-10-31T13:40:57;13.60;1.00
6662;DHT22;3367;48.714;8.994;2023-10-31T13:43:26;13.70;1.00
6662;DHT22;3367;48.714;8.994;2023-10-31T13:45:53;13.80;99.90
6662;DHT22;3367;48.714;8.994;2023-10-31T13:48:20;13.70;99.90
6662;DHT22;3367;48.714;8.994;2023-10-31T13:50:47;13.50;99.90
6662;DHT22;3367;48.714;8.994;2023-10-31T13:53:15;13.50;99.90
6662;DHT22;3367;48.714;8.994;2023-10-31T13:55:43;13.60;99.90
6662;DHT22;3367;48.714;8.994;2023-10-31T13:58:10;13.50;99.90
6662;DHT22;3367;48.714;8.994;2023-10-31T14:00:37;13.50;99.90
6662;DHT22;3367;48.714;8.994;2023-10-31T14:03:04;13.50;99.90
6662;DHT22;3367;48.714;8.994;2023-10-31T14:05:30;13.50;99.90
6662;DHT22;3367;48.714;8.994;2023-10-31T14:07:57;13.30;99.90
6662;DHT22;3367;48.714;8.994;2023-10-31T14:10:25;13.30;99.90
6662;DHT22;3367;48.714;8.994;2023-10-31T14:12:53;13.30;99.90
6662;DHT22;3367;48.714;8.994;2023-10-31T14:15:21;13.40;99.90
6662;DHT22;3367;48.714;8.994;2023-10-31T14:17:48;13.40;99.90
6662;DHT22;3367;48.714;8.994;2023-10-31T14:20:14;13.30;99.90
6662;DHT22;3367;48.714;8.994;2023-10-31T14:22:47;13.20;99.90
6662;DHT22;3367;48.714;8.994;2023-10-31T14:25:14;13.20;99.90
6662;DHT22;3367;48.714;8.994;2023-10-31T14:27:41;13.20;99.90
6662;DHT22;3367;48.714;8.994;2023-10-31T14:30:10;13.10;1.00
6662;DHT22;3367;48.714;8.994;2023-10-31T14:32:37;13.20;99.90
6662;DHT22;3367;48.714;8.994;2023-10-31T14:35:05;13.10;1.00
6662;DHT22;3367;48.714;8.994;2023-10-31T14:37:32;13.10;99.90
6662;DHT22;3367;48.714;8.994;2023-10-31T14:40:00;13.00;1.00
6662;DHT22;3367;48.714;8.994;2023-10-31T14:42:29;12.90;99.90
6662;DHT22;3367;48.714;8.994;2023-10-31T14:44:56;12.80;99.90
6662;DHT22;3367;48.714;8.994;2023-10-31T14:47:24;12.80;99.90
6662;DHT22;3367;48.714;8.994;2023-10-31T14:49:51;12.70;99.90
6662;DHT22;3367;48.714;8.994;2023-10-31T14:52:18;12.60;99.90
6662;DHT22;3367;48.714;8.994;2023-10-31T14:54:44;12.60;1.00
6662;DHT22;3367;48.714;8.994;2023-10-31T14:57:11;12.60;1.00
6662;DHT22;3367;48.714;8.994;2023-10-31T14:59:39;12.50;1.00
6662;DHT22;3367;48.714;8.994;2023-10-31T15:02:06;12.50;1.00
6662;DHT22;3367;48.714;8.994;2023-10-31T15:04:34;12.50;1.00
6662;DHT22;3367;48.714;8.994;2023-10-31T15:07:01;12.40;1.00
6662;DHT22;3367;48.714;8.994;2023-10-31T15:09:28;12.30;1.00
6662;DHT22;3367;48.714;8.994;2023-10-31T15:11:55;12.30;1.00
6662;DHT22;3367;48.714;8.994;2023-10-31T15:14:21;12.20;1.00
6662;DHT22;3367;48.714;8.994;2023-10-31T15:16:48;12.10;1.00
6662;DHT22;3367;48.714;8.994;2023-10-31T15:19:15;12.10;1.00
6662;DHT22;3367;48.714;8.994;2023-10-31T15:21:43;12.00;1.00
6662;DHT22;3367;48.714;8.994;2023-10-31T15:24:10;11.90;1.00
6662;DHT22;3367;48.714;8.994;2023-10-31T15:26:38;12.00;1.00
6662;DHT22;3367;48.714;8.994;2023-10-31T15:29:05;11.90;99.90
6662;DHT22;3367;48.714;8.994;2023-10-31T15:31:32;11.80;1.00
6662;DHT22;3367;48.714;8.994;2023-10-31T15:33:59;11.70;1.00
6662;DHT22;3367;48.714;8.994;2023-10-31T15:36:26;11.60;1.00
6662;DHT22;3367;48.714;8.994;2023-10-31T15:38:55;11.60;1.00
6662;DHT22;3367;48.714;8.994;2023-10-31T15:41:22;11.50;85.80
6662;DHT22;3367;48.714;8.994;2023-10-31T15:43:49;11.40;1.00
6662;DHT22;3367;48.714;8.994;2023-10-31T15:46:16;11.40;99.80
6662;DHT22;3367;48.714;8.994;2023-10-31T15:48:43;11.40;99.90
6662;DHT22;3367;48.714;8.994;2023-10-31T15:51:10;11.40;99.90
6662;DHT22;3367;48.714;8.994;2023-10-31T15:53:36;11.40;99.90
6662;DHT22;3367;48.714;8.994;2023-10-31T15:56:05;11.40;99.90
6662;DHT22;3367;48.714;8.994;2023-10-31T15:58:35;11.30;99.90
6662;DHT22;3367;48.714;8.994;2023-10-31T16:01:02;11.30;99.90
6662;DHT22;3367;48.714;8.994;2023-10-31T16:03:29;11.30;99.90
6662;DHT22;3367;48.714;8.994;2023-10-31T16:05:55;11.20;99.90
6662;DHT22;3367;48.714;8.994;2023-10-31T16:08:22;11.20;99.90
6662;DHT22;3367;48.714;8.994;2023-10-31T16:10:49;11.20;99.90
6662;DHT22;3367;48.714;8.994;2023-10-31T16:13:17;11.20;99.90
6662;DHT22;3367;48.714;8.994;2023-10-31T16:15:44;11.10;99.90
6662;DHT22;3367;48.714;8.994;2023-10-31T16:18:10;11.00;99.90
6662;DHT22;3367;48.714;8.994;2023-10-31T16:20:38;11.00;1.00
6662;DHT22;3367;48.714;8.994;2023-10-31T16:23:07;10.90;1.00